Time;durP1;ratioP1;P1;durP2;ratioP2;P2;SDS_P1;SDS_P2;PMS_P1;PMS_P2;Temp;Humidity;BMP_temperature;BMP_pressure;BME280_temperature;BME280_humidity;BME280_pressure;Samples;Min_cycle;Max_cycle;Signal;HPM_P1;HPM_P2
2022/06/11 00:02:05;;;;;;;6.22;5.03;;;17.20;99.90;;;;;;5096539;28;20020;-52
2022/06/11 00:04:39;;;;;;;6.72;5.13;;;17.20;99.90;;;;;;5095180;28;20115;-51
2022/06/11 00:07:12;;;;;;;7.43;4.82;;;17.20;99.90;;;;;;5081264;28;20024;-53
2022/06/11 00:09:38;;;;;;;5.53;5.05;;;17.20;99.90;;;;;;5101708;28;20024;-51
2022/06/11 00:12:05;;;;;;;5.60;4.93;;;17.20;99.90;;;;;;5076901;28;20103;-52
2022/06/11 00:14:32;;;;;;;6.20;5.28;;;17.20;99.90;;;;;;5102164;28;20058;-49
2022/06/11 00:16:59;;;;;;;6.63;5.03;;;17.20;99.90;;;;;;5100304;28;20129;-53
2022/06/11 00:19:26;;;;;;;9.10;5.45;;;17.20;99.90;;;;;;5102179;28;20405;-50
2022/06/11 00:21:53;;;;;;;6.60;5.22;;;17.20;99.90;;;;;;5100584;28;20526;-50
2022/06/11 00:24:20;;;;;;;6.07;5.43;;;17.20;99.90;;;;;;5083643;28;20016;-48
2022/06/11 00:26:47;;;;;;;5.78;5.18;;;17.20;99.90;;;;;;5101621;28;20023;-50
2022/06/11 00:29:14;;;;;;;5.82;4.97;;;17.20;99.90;;;;;;5090053;28;20073;-51
2022/06/11 00:31:40;;;;;;;6.20;4.90;;;17.20;99.90;;;;;;5100590;28;20038;-52
2022/06/11 00:34:06;;;;;;;6.05;5.45;;;17.20;99.90;;;;;;5098820;28;20099;-53
2022/06/11 00:36:33;;;;;;;5.60;5.20;;;17.20;99.90;;;;;;5102646;28;20031;-52
2022/06/11 00:38:59;;;;;;;7.25;5.72;;;17.20;99.90;;;;;;5100228;28;20036;-52
2022/06/11 00:41:27;;;;;;;6.05;5.55;;;17.20;99.90;;;;;;5102671;28;20022;-52
2022/06/11 00:43:53;;;;;;;5.95;5.35;;;17.20;99.90;;;;;;5100641;28;20031;-49
2022/06/11 00:46:40;;;;;;;6.30;5.47;;;17.20;99.90;;;;;;5097859;28;20099;-52
2022/06/11 00:49:30;;;;;;;5.95;5.43;;;17.20;99.90;;;;;;5104179;28;20534;-50
2022/06/11 00:52:10;;;;;;;6.55;5.93;;;17.20;99.90;;;;;;5095301;28;20042;-50
2022/06/11 00:54:40;;;;;;;6.88;5.57;;;17.20;99.90;;;;;;5079583;28;20032;-50
2022/06/11 00:57:08;;;;;;;6.28;5.68;;;17.20;99.90;;;;;;5093188;28;20031;-52
2022/06/11 00:59:40;;;;;;;6.47;5.70;;;17.20;99.90;;;;;;5066303;28;20166;-49
2022/06/11 01:02:06;;;;;;;5.85;5.35;;;17.20;99.90;;;;;;5096032;28;20029;-50
2022/06/11 01:04:47;;;;;;;6.68;5.50;;;17.10;99.90;;;;;;5081845;28;20126;-53
2022/06/11 01:07:19;;;;;;;7.00;5.75;;;17.20;99.90;;;;;;5096596;28;20008;-50
2022/06/11 01:10:05;;;;;;;5.93;5.40;;;17.20;99.90;;;;;;5097808;28;20020;-49
2022/06/11 01:13:03;;;;;;;6.00;4.57;;;17.10;99.90;;;;;;5096205;28;20016;-51
2022/06/11 01:15:54;;;;;;;6.13;5.50;;;17.10;99.90;;;;;;5056028;28;20074;-50
2022/06/11 01:18:33;;;;;;;7.03;5.60;;;17.10;99.90;;;;;;5069169;28;20021;-51
2022/06/11 01:21:25;;;;;;;6.50;5.55;;;17.10;99.90;;;;;;5100845;28;20095;-50
2022/06/11 01:23:51;;;;;;;6.78;4.88;;;17.10;99.90;;;;;;5102690;28;20489;-51
2022/06/11 01:27:04;;;;;;;5.88;5.32;;;17.10;99.90;;;;;;5105211;28;20026;-52
2022/06/11 01:29:52;;;;;;;6.03;5.43;;;17.10;99.90;;;;;;5040158;28;20069;-50
2022/06/11 01:32:20;;;;;;;5.72;5.22;;;17.10;99.90;;;;;;5096359;28;20031;-50
2022/06/11 01:35:18;;;;;;;6.13;5.50;;;17.10;99.90;;;;;;5101475;28;20060;-52
2022/06/11 01:37:53;;;;;;;6.90;5.22;;;17.10;99.90;;;;;;5077788;28;20031;-50
2022/06/11 01:40:55;;;;;;;6.13;5.63;;;17.10;99.90;;;;;;5090489;28;20069;-52
2022/06/11 01:43:40;;;;;;;6.20;5.68;;;17.10;99.90;;;;;;5088585;28;20042;-50
2022/06/11 01:46:18;;;;;;;7.50;5.65;;;17.10;99.90;;;;;;5103876;28;20020;-51
2022/06/11 01:48:57;;;;;;;5.75;5.15;;;17.10;99.90;;;;;;5104842;28;20027;-52
2022/06/11 01:51:30;;;;;;;6.78;6.15;;;17.10;99.90;;;;;;5099578;28;20024;-50
2022/06/11 01:54:14;;;;;;;6.35;5.70;;;17.10;99.90;;;;;;5107113;28;20106;-50
2022/06/11 01:57:08;;;;;;;6.28;5.78;;;17.10;99.90;;;;;;5096556;28;20085;-51
2022/06/11 01:59:56;;;;;;;7.78;6.20;;;17.00;99.90;;;;;;5096894;28;20110;-50
2022/06/11 02:02:49;;;;;;;9.07;7.45;;;17.00;99.90;;;;;;5067816;28;20019;-53
2022/06/11 02:05:44;;;;;;;6.95;6.25;;;17.00;99.90;;;;;;5102202;28;20365;-50
2022/06/11 02:08:29;;;;;;;6.65;6.05;;;17.00;99.90;;;;;;5101260;28;20070;-50
2022/06/11 02:11:35;;;;;;;7.50;6.50;;;17.00;99.90;;;;;;5107695;28;20110;-50
2022/06/11 02:14:09;;;;;;;6.77;6.17;;;17.00;99.90;;;;;;5088454;28;20040;-49
2022/06/11 02:17:03;;;;;;;7.38;6.35;;;17.00;99.90;;;;;;5105417;28;20020;-50
2022/06/11 02:19:34;;;;;;;6.30;5.70;;;17.00;99.90;;;;;;5094490;28;20026;-51
2022/06/11 02:22:16;;;;;;;7.03;6.40;;;17.00;99.90;;;;;;5101407;28;20020;-49
2022/06/11 02:24:56;;;;;;;6.25;5.75;;;17.00;99.90;;;;;;5103971;28;20043;-51
2022/06/11 02:27:25;;;;;;;6.95;6.35;;;16.90;99.90;;;;;;5103759;28;20016;-53
2022/06/11 02:29:55;;;;;;;6.40;5.90;;;17.00;99.90;;;;;;5103728;28;20027;-51
2022/06/11 02:32:23;;;;;;;6.28;5.78;;;16.90;99.90;;;;;;5103205;28;20104;-53
2022/06/11 02:34:57;;;;;;;6.88;6.28;;;17.00;99.90;;;;;;5103871;28;20019;-52
2022/06/11 02:37:32;;;;;;;6.10;5.50;;;17.00;99.90;;;;;;5098336;28;20047;-50
2022/06/11 02:40:24;;;;;;;6.28;5.68;;;16.90;99.90;;;;;;5106655;28;20375;-49
2022/06/11 02:42:50;;;;;;;7.10;6.47;;;16.90;99.90;;;;;;5078256;28;20016;-53
2022/06/11 02:45:17;;;;;;;6.97;6.38;;;16.90;99.90;;;;;;5107040;28;20518;-49
2022/06/11 02:47:45;;;;;;;9.80;6.55;;;16.90;99.90;;;;;;5100004;28;20023;-51
2022/06/11 02:50:27;;;;;;;6.60;5.93;;;16.90;99.90;;;;;;5107836;28;20027;-53
2022/06/11 02:52:57;;;;;;;7.80;6.28;;;16.90;99.90;;;;;;5099594;28;20067;-49
2022/06/11 02:55:23;;;;;;;5.72;5.32;;;16.90;99.90;;;;;;5103402;28;20088;-54
2022/06/11 02:57:49;;;;;;;8.20;5.85;;;16.90;99.90;;;;;;5100985;28;20032;-52
2022/06/11 03:00:19;;;;;;;8.35;6.25;;;16.90;99.90;;;;;;5088136;28;20016;-54
2022/06/11 03:02:48;;;;;;;7.28;6.50;;;17.00;99.90;;;;;;5078344;28;20400;-52
2022/06/11 03:05:20;;;;;;;6.32;5.72;;;16.90;99.90;;;;;;5095904;28;20054;-49
2022/06/11 03:07:46;;;;;;;6.18;5.57;;;16.90;99.90;;;;;;5102806;28;20031;-52
2022/06/11 03:10:18;;;;;;;6.82;6.20;;;16.90;99.90;;;;;;5103024;28;20098;-49
2022/06/11 03:12:44;;;;;;;6.35;5.78;;;16.90;99.90;;;;;;5094770;28;20035;-54
2022/06/11 03:15:12;;;;;;;6.47;5.88;;;16.90;99.90;;;;;;5102361;28;20019;-50
2022/06/11 03:17:38;;;;;;;6.60;6.05;;;16.90;99.90;;;;;;5102495;28;20115;-49
2022/06/11 03:20:06;;;;;;;6.85;6.28;;;16.90;99.90;;;;;;5101348;28;20028;-49
2022/06/11 03:22:32;;;;;;;8.60;5.82;;;16.90;99.90;;;;;;5101760;28;20106;-52
2022/06/11 03:24:58;;;;;;;6.65;6.05;;;16.90;99.90;;;;;;5083177;28;20021;-50
2022/06/11 03:27:24;;;;;;;7.82;6.45;;;16.90;99.90;;;;;;5078614;28;20027;-51
2022/06/11 03:29:51;;;;;;;6.00;5.47;;;16.90;99.90;;;;;;5081725;28;20023;-51
2022/06/11 03:32:17;;;;;;;6.55;5.85;;;16.90;99.90;;;;;;5102078;28;20023;-49
2022/06/11 03:34:43;;;;;;;7.43;6.25;;;16.90;99.90;;;;;;5101679;28;20534;-51
2022/06/11 03:37:09;;;;;;;6.32;5.72;;;16.90;99.90;;;;;;5101718;28;20063;-49
2022/06/11 03:39:35;;;;;;;6.20;5.70;;;16.90;99.90;;;;;;5102613;28;20020;-49
2022/06/11 03:42:01;;;;;;;6.22;5.65;;;16.90;99.90;;;;;;5100602;28;20028;-50
2022/06/11 03:44:26;;;;;;;5.95;5.43;;;16.90;99.90;;;;;;5102018;28;20008;-49
2022/06/11 03:46:52;;;;;;;6.07;5.53;;;17.00;99.90;;;;;;5100164;28;20051;-49
2022/06/11 03:49:18;;;;;;;6.25;5.70;;;17.00;99.90;;;;;;5102471;28;20036;-52
2022/06/11 03:51:45;;;;;;;6.20;5.50;;;17.00;99.90;;;;;;5100834;28;20073;-49
2022/06/11 03:54:11;;;;;;;5.80;5.30;;;17.00;99.90;;;;;;5101498;28;20405;-52
2022/06/11 03:56:37;;;;;;;6.25;5.50;;;17.00;99.90;;;;;;5102100;28;20054;-53
2022/06/11 03:59:04;;;;;;;6.40;5.80;;;17.10;99.90;;;;;;5101188;28;20478;-52
2022/06/11 04:01:30;;;;;;;5.80;5.28;;;17.10;99.90;;;;;;5095914;28;20495;-52
2022/06/11 04:04:05;;;;;;;7.22;5.63;;;17.10;99.90;;;;;;5096777;28;20020;-49
2022/06/11 04:06:52;;;;;;;6.65;5.80;;;17.10;99.90;;;;;;5102358;28;20012;-49
2022/06/11 04:09:22;;;;;;;7.05;5.88;;;17.20;99.90;;;;;;5087753;28;20038;-49
2022/06/11 04:11:48;;;;;;;6.68;6.00;;;17.20;99.90;;;;;;5100286;28;20494;-49
2022/06/11 04:14:14;;;;;;;5.65;5.13;;;17.20;99.90;;;;;;5087501;28;20016;-50
2022/06/11 04:16:44;;;;;;;4.93;4.60;;;17.20;99.90;;;;;;5102415;28;20021;-51
2022/06/11 04:19:17;;;;;;;5.43;4.93;;;17.20;99.90;;;;;;5083046;28;21121;-54
2022/06/11 04:21:44;;;;;;;5.05;4.65;;;17.20;99.90;;;;;;5099934;28;20081;-49
2022/06/11 04:24:09;;;;;;;4.53;4.22;;;17.10;99.90;;;;;;5101389;28;20008;-51
2022/06/11 04:26:41;;;;;;;5.57;4.68;;;17.10;99.90;;;;;;5101629;28;20622;-50
2022/06/11 04:29:10;;;;;;;5.55;5.05;;;17.10;99.90;;;;;;5099839;28;20031;-52
2022/06/11 04:31:37;;;;;;;6.57;5.43;;;17.20;99.90;;;;;;5082944;28;20027;-49
2022/06/11 04:34:03;;;;;;;6.22;5.25;;;17.20;99.90;;;;;;5100784;28;20077;-51
2022/06/11 04:36:32;;;;;;;5.60;5.10;;;17.30;99.90;;;;;;5101222;28;20565;-53
2022/06/11 04:38:57;;;;;;;6.28;5.07;;;17.30;99.90;;;;;;5080865;28;20181;-50
2022/06/11 04:41:24;;;;;;;5.18;4.68;;;17.40;99.90;;;;;;5082829;28;20102;-50
2022/06/11 04:43:49;;;;;;;6.32;5.72;;;17.40;99.90;;;;;;5099858;28;20550;-51
2022/06/11 04:46:17;;;;;;;5.10;4.70;;;17.40;99.90;;;;;;5101493;28;20062;-53
2022/06/11 04:48:43;;;;;;;6.43;5.63;;;17.40;99.90;;;;;;5101291;28;20028;-50
2022/06/11 04:51:10;;;;;;;6.05;5.43;;;17.40;99.90;;;;;;5100548;28;20031;-49
2022/06/11 04:53:36;;;;;;;5.43;4.93;;;17.40;99.90;;;;;;5101552;28;20035;-50
2022/06/11 04:56:02;;;;;;;9.30;5.95;;;17.40;99.90;;;;;;5103782;28;20028;-50
2022/06/11 04:58:28;;;;;;;6.75;5.03;;;17.50;99.90;;;;;;5105991;28;20031;-54
2022/06/11 05:00:54;;;;;;;9.35;6.40;;;17.50;99.90;;;;;;5104324;28;20026;-51
2022/06/11 05:03:19;;;;;;;6.18;5.68;;;17.50;99.90;;;;;;5097956;28;20102;-51
2022/06/11 05:05:45;;;;;;;7.85;5.95;;;17.50;99.90;;;;;;5108064;28;20027;-51
2022/06/11 05:08:13;;;;;;;8.00;6.28;;;17.60;99.90;;;;;;5084188;28;20110;-50
2022/06/11 05:10:40;;;;;;;6.65;5.18;;;17.60;99.90;;;;;;5107887;28;20124;-49
2022/06/11 05:13:07;;;;;;;4.70;4.30;;;17.60;99.90;;;;;;5102473;28;20436;-51
2022/06/11 05:15:34;;;;;;;7.13;5.97;;;17.70;99.90;;;;;;5089153;28;20047;-51
2022/06/11 05:18:00;;;;;;;8.27;6.43;;;17.70;99.90;;;;;;5103413;28;20548;-51
2022/06/11 05:20:26;;;;;;;6.93;6.32;;;17.80;99.90;;;;;;5101392;28;20020;-53
2022/06/11 05:22:52;;;;;;;7.80;6.30;;;17.90;99.90;;;;;;5107784;28;20513;-50
2022/06/11 05:25:19;;;;;;;5.40;5.00;;;18.00;99.90;;;;;;5083379;28;20024;-49
2022/06/11 05:27:47;;;;;;;8.60;5.57;;;18.10;99.90;;;;;;5108085;28;20102;-51
2022/06/11 05:30:23;;;;;;;6.68;6.07;;;18.20;99.90;;;;;;5101712;28;20542;-53
2022/06/11 05:32:49;;;;;;;8.27;5.90;;;18.30;99.90;;;;;;5109337;28;20027;-50
2022/06/11 05:35:21;;;;;;;7.72;6.43;;;18.40;99.90;;;;;;5101802;28;20013;-50
2022/06/11 05:37:49;;;;;;;6.40;5.63;;;18.50;99.90;;;;;;5101184;28;20499;-51
2022/06/11 05:40:18;;;;;;;7.97;6.10;;;18.50;99.90;;;;;;5095324;28;20027;-52
2022/06/11 05:42:47;;;;;;;11.70;6.10;;;18.50;99.90;;;;;;5096642;28;20024;-50
2022/06/11 05:45:20;;;;;;;7.78;6.53;;;18.50;99.90;;;;;;5108489;28;20016;-51
2022/06/11 05:47:48;;;;;;;10.30;6.72;;;18.50;99.90;;;;;;5101120;28;20039;-51
2022/06/11 05:50:23;;;;;;;15.50;6.40;;;18.50;99.90;;;;;;5093305;28;20103;-50
2022/06/11 05:52:49;;;;;;;6.40;5.75;;;18.60;99.90;;;;;;5100387;28;20142;-50
2022/06/11 05:55:18;;;;;;;6.53;5.97;;;18.70;99.90;;;;;;5086359;28;20027;-51
2022/06/11 05:57:47;;;;;;;7.50;6.50;;;18.90;99.90;;;;;;5103049;28;20463;-51
2022/06/11 06:00:16;;;;;;;7.90;6.35;;;19.00;99.90;;;;;;5104340;28;20043;-50
2022/06/11 06:02:44;;;;;;;9.43;6.25;;;19.20;99.90;;;;;;5100008;28;20016;-54
2022/06/11 06:05:13;;;;;;;8.77;6.10;;;19.30;99.90;;;;;;5101462;28;20019;-51
2022/06/11 06:07:39;;;;;;;9.60;7.43;;;19.50;99.90;;;;;;5103991;28;20553;-50
2022/06/11 06:10:05;;;;;;;10.00;8.25;;;19.60;99.90;;;;;;5102960;28;20146;-51
2022/06/11 06:12:32;;;;;;;11.88;8.63;;;19.70;99.90;;;;;;5104022;28;20038;-49
2022/06/11 06:15:08;;;;;;;8.57;7.80;;;19.80;99.90;;;;;;5085577;28;20024;-50
2022/06/11 06:17:35;;;;;;;10.05;8.43;;;19.90;99.90;;;;;;5103984;28;20028;-49
2022/06/11 06:20:01;;;;;;;14.18;7.80;;;20.00;99.90;;;;;;5102298;28;20027;-51
2022/06/11 06:22:26;;;;;;;13.13;8.35;;;20.10;99.90;;;;;;5103171;28;20008;-50
2022/06/11 06:24:52;;;;;;;12.02;7.25;;;20.20;99.90;;;;;;5103494;28;20027;-49
2022/06/11 06:27:18;;;;;;;7.93;7.13;;;20.20;99.90;;;;;;5068095;28;20024;-50
2022/06/11 06:29:43;;;;;;;9.13;7.88;;;20.30;99.90;;;;;;5096272;28;20020;-50
2022/06/11 06:32:09;;;;;;;8.50;7.45;;;20.40;99.90;;;;;;5104354;28;20405;-50
2022/06/11 06:34:34;;;;;;;9.52;8.00;;;20.40;99.90;;;;;;5103865;28;20132;-50
2022/06/11 06:37:00;;;;;;;9.45;8.07;;;20.50;99.90;;;;;;5101719;28;20397;-49
2022/06/11 06:39:25;;;;;;;10.63;7.95;;;20.70;99.90;;;;;;5103243;28;20055;-53
2022/06/11 06:41:51;;;;;;;10.98;8.43;;;20.90;99.90;;;;;;5103054;28;20019;-49
2022/06/11 06:44:17;;;;;;;11.48;7.72;;;20.80;99.90;;;;;;5102633;28;20020;-49
2022/06/11 06:46:43;;;;;;;8.60;7.82;;;20.70;99.90;;;;;;5103865;28;20031;-50
2022/06/11 06:49:09;;;;;;;7.05;6.35;;;20.50;99.90;;;;;;5103263;28;20474;-51
2022/06/11 06:51:35;;;;;;;6.03;5.45;;;20.40;99.90;;;;;;5103376;28;20035;-51
2022/06/11 06:54:02;;;;;;;6.65;5.25;;;20.40;99.90;;;;;;5101541;28;20593;-53
2022/06/11 06:56:31;;;;;;;8.68;5.85;;;20.40;99.90;;;;;;5103459;28;20419;-50
2022/06/11 06:58:57;;;;;;;10.68;5.25;;;20.40;99.90;;;;;;5083746;28;20035;-52
2022/06/11 07:01:26;;;;;;;6.32;4.88;;;20.40;99.90;;;;;;5080867;28;20015;-50
2022/06/11 07:03:52;;;;;;;9.07;5.90;;;20.40;99.90;;;;;;5096995;28;20046;-50
2022/06/11 07:06:17;;;;;;;6.00;4.47;;;20.50;99.90;;;;;;5087277;28;20048;-51
2022/06/11 07:08:43;;;;;;;7.15;4.35;;;20.50;99.90;;;;;;5099905;28;20020;-50
2022/06/11 07:11:08;;;;;;;4.28;3.85;;;20.40;99.90;;;;;;5106639;28;20524;-54
2022/06/11 07:13:35;;;;;;;5.63;4.22;;;20.40;99.90;;;;;;5099229;28;20448;-52
2022/06/11 07:16:04;;;;;;;4.93;3.97;;;20.50;99.90;;;;;;5107495;28;20042;-49
2022/06/11 07:18:59;;;;;;;9.73;4.55;;;20.50;99.90;;;;;;5099291;28;20082;-49
2022/06/11 07:21:30;;;;;;;7.82;4.03;;;20.60;99.90;;;;;;5086302;28;20709;-49
2022/06/11 07:23:59;;;;;;;5.57;3.75;;;20.60;99.90;;;;;;5063484;28;20099;-50
2022/06/11 07:26:36;;;;;;;7.72;3.67;;;20.50;99.90;;;;;;5084787;28;20030;-50
2022/06/11 07:29:15;;;;;;;4.88;3.92;;;20.60;99.90;;;;;;5101143;28;20078;-49
2022/06/11 07:31:44;;;;;;;4.28;3.30;;;20.60;99.90;;;;;;5101991;28;20492;-51
2022/06/11 07:34:13;;;;;;;3.55;3.22;;;20.60;99.90;;;;;;5083644;28;20120;-50
2022/06/11 07:36:39;;;;;;;5.07;3.70;;;21.00;99.90;;;;;;5102444;28;20478;-50
2022/06/11 07:39:04;;;;;;;5.78;3.70;;;21.30;99.90;;;;;;5100282;28;20066;-49
2022/06/11 07:41:30;;;;;;;5.05;4.05;;;21.60;99.90;;;;;;5102430;28;20027;-52
2022/06/11 07:43:55;;;;;;;5.65;3.83;;;21.80;99.90;;;;;;5082678;28;20716;-50
2022/06/11 07:46:22;;;;;;;4.70;3.28;;;21.90;99.90;;;;;;5084282;28;20116;-50
2022/06/11 07:48:48;;;;;;;6.90;3.38;;;22.00;99.90;;;;;;5102101;28;20500;-51
2022/06/11 07:51:18;;;;;;;6.63;3.17;;;22.10;99.90;;;;;;5090974;28;20446;-52
2022/06/11 07:53:47;;;;;;;5.18;3.58;;;22.20;99.90;;;;;;5102346;28;20062;-52
2022/06/11 07:56:13;;;;;;;5.53;3.40;;;22.20;99.90;;;;;;5100356;28;20020;-53
2022/06/11 07:58:39;;;;;;;9.18;3.72;;;22.30;99.90;;;;;;5102134;28;20363;-51
2022/06/11 08:01:05;;;;;;;5.65;4.05;;;22.50;99.90;;;;;;5100588;28;20123;-53
2022/06/11 08:03:32;;;;;;;5.43;3.53;;;22.70;99.90;;;;;;5093589;28;20024;-50
2022/06/11 08:05:59;;;;;;;5.55;3.33;;;23.00;99.90;;;;;;5105196;28;20034;-51
2022/06/11 08:08:25;;;;;;;4.28;2.65;;;23.20;99.90;;;;;;5098789;28;20031;-49
2022/06/11 08:10:51;;;;;;;6.22;2.72;;;23.50;99.90;;;;;;5087414;28;20393;-54
2022/06/11 08:13:17;;;;;;;3.80;2.95;;;23.60;99.90;;;;;;5097957;28;20062;-52
2022/06/11 08:15:45;;;;;;;5.22;2.70;;;23.40;99.90;;;;;;5105480;28;20069;-53
2022/06/11 08:18:11;;;;;;;7.47;3.80;;;23.20;99.90;;;;;;5098790;28;20088;-51
2022/06/11 08:20:37;;;;;;;3.88;2.95;;;23.00;99.90;;;;;;5098074;28;20103;-49
2022/06/11 08:23:04;;;;;;;4.75;3.20;;;23.00;99.90;;;;;;5104291;28;20028;-51
2022/06/11 08:25:30;;;;;;;3.67;3.33;;;22.90;99.90;;;;;;5097943;28;20012;-52
2022/06/11 08:27:56;;;;;;;5.63;4.85;;;23.00;99.90;;;;;;5105274;28;20149;-49
2022/06/11 08:30:24;;;;;;;7.38;5.20;;;23.20;99.90;;;;;;5079445;28;20016;-51
2022/06/11 08:32:50;;;;;;;5.30;4.78;;;23.30;99.90;;;;;;5105734;28;20027;-51
2022/06/11 08:35:18;;;;;;;7.13;4.20;;;23.40;99.90;;;;;;5098021;28;20031;-53
2022/06/11 08:37:44;;;;;;;4.53;4.07;;;23.40;99.90;;;;;;5079652;28;20362;-54
2022/06/11 08:40:44;;;;;;;5.03;4.00;;;23.60;99.90;;;;;;5104283;28;20032;-53
2022/06/11 08:43:12;;;;;;;4.70;3.75;;;23.50;99.90;;;;;;5095438;28;20028;-51
2022/06/11 08:45:43;;;;;;;5.30;4.18;;;23.50;99.90;;;;;;5101897;28;20123;-51
2022/06/11 08:48:30;;;;;;;5.38;3.33;;;23.50;99.90;;;;;;5101026;28;20024;-55
2022/06/11 08:51:09;;;;;;;4.65;3.40;;;23.40;99.90;;;;;;5100834;28;20564;-49
2022/06/11 08:53:37;;;;;;;6.03;3.80;;;23.40;99.90;;;;;;5101150;28;20035;-52
2022/06/11 08:56:03;;;;;;;5.97;4.32;;;23.60;99.90;;;;;;5081141;28;20020;-51
2022/06/11 08:58:54;;;;;;;6.10;4.25;;;23.70;99.90;;;;;;5083190;28;20031;-50
2022/06/11 09:02:08;;;;;;;4.72;3.25;;;23.70;99.90;;;;;;5097431;28;20024;-51
2022/06/11 09:05:10;;;;;;;3.60;3.35;;;23.70;99.90;;;;;;4991790;28;20035;-52
2022/06/11 09:07:51;;;;;;;5.82;3.67;;;23.70;99.90;;;;;;5094769;28;20020;-52
2022/06/11 09:10:35;;;;;;;7.95;4.97;;;23.60;99.90;;;;;;5099735;28;20144;-52
2022/06/11 09:13:00;;;;;;;7.07;4.20;;;23.30;99.90;;;;;;5099123;28;20219;-54
2022/06/11 09:15:41;;;;;;;6.53;3.95;;;23.30;99.90;;;;;;5102600;28;20316;-50
2022/06/11 09:18:13;;;;;;;7.57;4.78;;;23.20;99.90;;;;;;5099037;28;20367;-50
2022/06/11 09:21:09;;;;;;;7.45;4.90;;;23.30;99.90;;;;;;5074084;28;20017;-48
2022/06/11 09:23:49;;;;;;;7.40;4.65;;;23.10;99.90;;;;;;5075154;28;20062;-51
2022/06/11 09:26:48;;;;;;;5.22;4.72;;;22.70;99.90;;;;;;5085552;28;20406;-50
2022/06/11 09:29:36;;;;;;;5.30;4.80;;;22.70;99.90;;;;;;5101222;28;20030;-49
2022/06/11 09:32:03;;;;;;;5.30;4.13;;;22.90;99.90;;;;;;5098285;28;20076;-51
2022/06/11 09:34:57;;;;;;;6.00;3.97;;;23.30;99.90;;;;;;5082061;28;20047;-54
2022/06/11 09:37:47;;;;;;;6.03;3.60;;;23.50;99.90;;;;;;5095261;28;20052;-53
2022/06/11 09:40:32;;;;;;;5.72;3.58;;;23.30;99.90;;;;;;5105062;28;20087;-53
2022/06/11 09:43:26;;;;;;;5.32;3.58;;;23.20;99.90;;;;;;5099324;28;20016;-49
2022/06/11 09:46:03;;;;;;;5.90;2.95;;;23.30;99.90;;;;;;5103532;28;20513;-49
2022/06/11 09:48:38;;;;;;;3.92;2.55;;;23.50;99.90;;;;;;5104834;28;20063;-50
2022/06/11 09:51:08;;;;;;;1.90;1.70;;;23.60;99.90;;;;;;5104000;28;20022;-51
2022/06/11 09:53:52;;;;;;;3.58;1.90;;;23.30;99.90;;;;;;5104267;28;20027;-50
2022/06/11 09:56:30;;;;;;;4.45;1.70;;;23.30;99.40;;;;;;5096037;28;20028;-52
2022/06/11 09:59:13;;;;;;;5.60;1.77;;;23.50;98.00;;;;;;5103380;28;20024;-53
2022/06/11 10:02:01;;;;;;;4.18;2.15;;;23.50;98.60;;;;;;5074671;28;20012;-53
2022/06/11 10:04:31;;;;;;;4.13;1.73;;;23.40;95.40;;;;;;5073220;28;20095;-51
2022/06/11 10:07:03;;;;;;;1.58;1.33;;;23.30;93.70;;;;;;5102093;28;20028;-53
2022/06/11 10:09:47;;;;;;;2.65;1.35;;;23.40;94.40;;;;;;5104590;28;20485;-50
2022/06/11 10:12:19;;;;;;;2.03;1.65;;;23.60;95.60;;;;;;5103734;28;20051;-48
2022/06/11 10:15:10;;;;;;;3.33;1.30;;;23.30;92.50;;;;;;5104532;28;20012;-50
2022/06/11 10:18:03;;;;;;;1.90;1.52;;;23.00;92.40;;;;;;5104058;28;20050;-50
2022/06/11 10:20:31;;;;;;;4.90;1.92;;;23.00;92.80;;;;;;5099332;28;20129;-50
2022/06/11 10:23:19;;;;;;;2.17;1.40;;;23.30;94.20;;;;;;5106261;28;20024;-53
2022/06/11 10:26:11;;;;;;;2.90;1.40;;;23.30;92.70;;;;;;5096560;28;20456;-53
2022/06/11 10:28:49;;;;;;;3.28;1.70;;;23.20;94.40;;;;;;5096584;28;20022;-52
2022/06/11 10:31:19;;;;;;;4.75;1.60;;;23.40;94.00;;;;;;5071038;28;20026;-51
2022/06/11 10:33:54;;;;;;;3.33;2.20;;;23.60;96.10;;;;;;5104097;28;20531;-55
2022/06/11 10:36:25;;;;;;;3.70;1.95;;;23.80;92.80;;;;;;5091347;28;20031;-52
2022/06/11 10:38:57;;;;;;;4.55;1.85;;;23.70;93.10;;;;;;5101411;28;20110;-52
2022/06/11 10:41:38;;;;;;;1.75;1.65;;;23.40;90.60;;;;;;5103460;28;20038;-54
2022/06/11 10:44:19;;;;;;;6.85;1.90;;;23.30;92.30;;;;;;5101429;28;20492;-50
2022/06/11 10:46:45;;;;;;;3.67;1.60;;;23.40;92.20;;;;;;5104235;28;20054;-52
2022/06/11 10:49:17;;;;;;;4.88;2.15;;;23.40;92.50;;;;;;5100336;28;20030;-51
2022/06/11 10:52:03;;;;;;;5.75;2.30;;;23.30;91.90;;;;;;5103733;28;20026;-52
2022/06/11 10:54:28;;;;;;;6.68;2.20;;;23.20;92.60;;;;;;5098983;28;20020;-55
2022/06/11 10:57:25;;;;;;;4.93;2.13;;;23.10;93.20;;;;;;5106096;28;20115;-49
2022/06/11 11:00:15;;;;;;;3.75;1.60;;;23.20;95.00;;;;;;5096848;28;20717;-54
2022/06/11 11:02:48;;;;;;;3.33;2.25;;;23.50;94.70;;;;;;5098234;28;20505;-51
2022/06/11 11:05:16;;;;;;;5.63;2.08;;;23.60;92.90;;;;;;5100903;28;20015;-55
2022/06/11 11:07:44;;;;;;;4.88;2.05;;;23.50;90.90;;;;;;5103207;28;20035;-50
2022/06/11 11:10:40;;;;;;;4.85;2.50;;;23.50;92.40;;;;;;5102146;28;20028;-49
2022/06/11 11:13:32;;;;;;;7.20;2.43;;;23.30;92.30;;;;;;5100341;28;20481;-51
2022/06/11 11:16:07;;;;;;;7.35;2.72;;;23.30;93.20;;;;;;5107835;28;20020;-53
2022/06/11 11:18:40;;;;;;;4.13;1.90;;;23.10;93.30;;;;;;5099298;28;20482;-53
2022/06/11 11:21:30;;;;;;;3.47;2.17;;;23.20;95.30;;;;;;5101301;28;20020;-55
2022/06/11 11:24:03;;;;;;;7.40;2.70;;;23.10;93.70;;;;;;5082151;28;20021;-51
2022/06/11 11:26:43;;;;;;;7.57;3.53;;;23.10;93.80;;;;;;5102713;28;20016;-52
2022/06/11 11:29:32;;;;;;;7.90;2.78;;;22.90;95.30;;;;;;5083157;28;20027;-52
2022/06/11 11:32:04;;;;;;;8.02;2.75;;;23.00;96.40;;;;;;5083399;28;20027;-51
2022/06/11 11:34:31;;;;;;;9.30;3.00;;;23.30;95.30;;;;;;5103022;28;20028;-54
2022/06/11 11:37:12;;;;;;;9.45;3.63;;;23.40;96.50;;;;;;5082725;28;20027;-52
2022/06/11 11:39:38;;;;;;;5.80;2.60;;;23.40;96.10;;;;;;5085696;28;20038;-52
2022/06/11 11:42:06;;;;;;;6.90;2.47;;;23.40;94.60;;;;;;5099918;28;20020;-51
2022/06/11 11:44:41;;;;;;;8.02;2.72;;;23.40;95.50;;;;;;5103934;28;20028;-50
2022/06/11 11:47:46;;;;;;;3.75;2.55;;;23.40;95.90;;;;;;5100255;28;20028;-54
2022/06/11 11:50:11;;;;;;;6.50;2.83;;;23.20;95.70;;;;;;5085475;28;20438;-52
2022/06/11 11:52:44;;;;;;;6.05;2.67;;;23.20;95.40;;;;;;5098095;28;20027;-52
2022/06/11 11:55:19;;;;;;;7.07;2.45;;;23.10;95.60;;;;;;5101834;28;20027;-54
2022/06/11 11:57:54;;;;;;;8.70;2.33;;;23.20;98.70;;;;;;5100497;28;20072;-53
2022/06/11 12:00:28;;;;;;;7.90;2.83;;;23.20;96.10;;;;;;5088453;28;20019;-53
2022/06/11 12:02:59;;;;;;;7.40;2.58;;;23.00;98.00;;;;;;5096718;28;20073;-51
2022/06/11 12:05:33;;;;;;;10.15;2.65;;;23.00;97.20;;;;;;5101072;28;20526;-50
2022/06/11 12:08:00;;;;;;;5.70;2.78;;;23.00;97.80;;;;;;5082062;28;20030;-50
2022/06/11 12:10:36;;;;;;;11.13;3.28;;;23.20;95.80;;;;;;5102479;28;20015;-52
2022/06/11 12:13:17;;;;;;;8.07;2.70;;;23.30;95.00;;;;;;5099561;28;20023;-53
2022/06/11 12:15:51;;;;;;;9.48;2.70;;;23.40;95.70;;;;;;5101402;28;20020;-53
2022/06/11 12:18:20;;;;;;;8.07;2.10;;;23.40;95.10;;;;;;5093396;28;20378;-51
2022/06/11 12:21:03;;;;;;;9.27;2.88;;;23.60;95.70;;;;;;5098182;28;20496;-54
2022/06/11 12:23:44;;;;;;;6.43;2.63;;;23.70;93.60;;;;;;5094255;28;20051;-51
2022/06/11 12:26:23;;;;;;;5.85;2.45;;;23.80;94.40;;;;;;5101243;28;20093;-52
2022/06/11 12:29:14;;;;;;;7.88;2.30;;;24.00;94.00;;;;;;5100352;28;20028;-52
2022/06/11 12:31:41;;;;;;;9.65;2.97;;;24.20;95.90;;;;;;5045294;28;20046;-50
2022/06/11 12:34:15;;;;;;;6.28;2.78;;;24.30;94.10;;;;;;5100656;28;20024;-53
2022/06/11 12:36:44;;;;;;;7.82;2.78;;;24.00;94.60;;;;;;5101316;28;20370;-49
2022/06/11 12:39:31;;;;;;;7.70;2.10;;;23.70;94.80;;;;;;5099180;28;20020;-51
2022/06/11 12:42:17;;;;;;;8.63;2.45;;;23.60;94.50;;;;;;5092658;28;20020;-53
2022/06/11 12:45:08;;;;;;;8.32;2.88;;;23.60;94.50;;;;;;5100083;28;20016;-50
2022/06/11 12:48:00;;;;;;;6.30;2.53;;;23.80;95.10;;;;;;5077792;28;20012;-55
2022/06/11 12:50:31;;;;;;;10.20;2.85;;;23.80;94.40;;;;;;5091513;28;20016;-51
2022/06/11 12:53:17;;;;;;;8.50;2.38;;;23.80;94.60;;;;;;5095794;28;20062;-50
2022/06/11 12:56:17;;;;;;;12.80;3.58;;;23.80;95.20;;;;;;5100173;28;20084;-52
2022/06/11 12:59:16;;;;;;;8.07;3.35;;;23.50;94.90;;;;;;5096680;28;20022;-53
2022/06/11 13:01:45;;;;;;;10.18;3.58;;;23.60;95.70;;;;;;5090432;28;20032;-52
2022/06/11 13:04:44;;;;;;;8.80;3.78;;;23.70;95.60;;;;;;5082786;28;20492;-49
2022/06/11 13:07:17;;;;;;;6.57;2.75;;;23.80;94.00;;;;;;5100331;28;20016;-51
2022/06/11 13:09:50;;;;;;;9.52;3.00;;;23.80;95.20;;;;;;5100366;28;20106;-49
2022/06/11 13:12:31;;;;;;;7.90;2.95;;;23.60;94.20;;;;;;5089273;28;20023;-50
2022/06/11 13:15:24;;;;;;;10.40;3.20;;;23.50;94.60;;;;;;5101202;28;20679;-50
2022/06/11 13:18:04;;;;;;;13.15;3.55;;;23.50;95.00;;;;;;5104854;28;20020;-52
2022/06/11 13:20:44;;;;;;;13.70;3.33;;;23.70;94.70;;;;;;5101223;28;20470;-54